Time;durP1;ratioP1;P1;durP2;ratioP2;P2;SDS_P1;SDS_P2;PMS_P1;PMS_P2;Temp;Humidity;BMP_temperature;BMP_pressure;BME280_temperature;BME280_humidity;BME280_pressure;Samples;Min_cycle;Max_cycle;Signal;HPM_P1;HPM_P2
2023/05/03 00:01:48;;;;;;;3.60;3.20;;;8.60;99.90;;;;;;5040553;28;20201;-67
2023/05/03 00:04:15;;;;;;;9.07;4.03;;;8.50;99.90;;;;;;5050306;28;20182;-66
2023/05/03 00:06:43;;;;;;;5.63;3.53;;;8.50;99.90;;;;;;5053371;28;20631;-66
2023/05/03 00:09:09;;;;;;;4.23;3.80;;;8.50;99.90;;;;;;5048975;28;20186;-67
2023/05/03 00:11:35;;;;;;;6.40;4.47;;;8.40;99.90;;;;;;5045625;28;20189;-67
2023/05/03 00:14:01;;;;;;;5.20;3.23;;;8.40;99.90;;;;;;5046747;28;20301;-67
2023/05/03 00:16:27;;;;;;;6.97;3.77;;;8.20;99.90;;;;;;5048574;28;20650;-65
2023/05/03 00:18:52;;;;;;;6.93;4.60;;;8.10;99.90;;;;;;5044541;28;20237;-65
2023/05/03 00:21:18;;;;;;;8.63;3.73;;;8.10;99.90;;;;;;5050945;28;20193;-66
2023/05/03 00:23:44;;;;;;;5.30;4.70;;;8.00;99.90;;;;;;5074274;28;20209;-66
2023/05/03 00:26:09;;;;;;;8.57;3.63;;;8.00;99.90;;;;;;5053349;28;20283;-67
2023/05/03 00:28:35;;;;;;;4.87;3.70;;;8.00;99.90;;;;;;5049250;28;20531;-66
2023/05/03 00:31:08;;;;;;;4.60;3.70;;;8.00;99.90;;;;;;5052465;28;20193;-67
2023/05/03 00:33:34;;;;;;;4.43;3.53;;;8.00;99.90;;;;;;5051044;28;20201;-67
2023/05/03 00:36:07;;;;;;;5.63;4.17;;;7.90;99.90;;;;;;5053018;28;20200;-64
2023/05/03 00:38:33;;;;;;;5.77;3.40;;;7.80;99.90;;;;;;5047817;28;20174;-65
2023/05/03 00:40:58;;;;;;;7.03;3.97;;;7.80;99.90;;;;;;5049076;28;20192;-67
2023/05/03 00:43:24;;;;;;;5.10;3.33;;;7.80;99.90;;;;;;5050479;28;20229;-64
2023/05/03 00:45:50;;;;;;;6.10;4.60;;;7.90;99.90;;;;;;5052608;28;20518;-66
2023/05/03 00:48:17;;;;;;;5.07;4.00;;;8.00;99.90;;;;;;5053474;28;20519;-65
2023/05/03 00:50:44;;;;;;;5.23;3.80;;;8.00;99.90;;;;;;5050802;28;20213;-66
2023/05/03 00:53:10;;;;;;;10.47;4.07;;;8.10;99.90;;;;;;5050404;28;20190;-66
2023/05/03 00:55:36;;;;;;;9.33;4.57;;;8.00;99.90;;;;;;5046763;28;20209;-66
2023/05/03 00:58:02;;;;;;;4.80;3.70;;;7.90;99.90;;;;;;5052733;28;20186;-66
2023/05/03 01:00:28;;;;;;;4.63;3.97;;;7.80;99.90;;;;;;5046450;28;20187;-67
2023/05/03 01:02:53;;;;;;;8.70;4.03;;;7.80;99.90;;;;;;5050580;28;20181;-65
2023/05/03 01:05:21;;;;;;;5.30;4.30;;;7.70;99.90;;;;;;5045136;28;20194;-66
2023/05/03 01:08:02;;;;;;;4.30;3.73;;;7.70;99.90;;;;;;5044292;28;20186;-66
2023/05/03 01:10:57;;;;;;;4.97;4.00;;;7.70;99.90;;;;;;5040169;28;20215;-66
2023/05/03 01:13:51;;;;;;;10.87;4.00;;;7.70;99.90;;;;;;5052022;28;20255;-67
2023/05/03 01:16:43;;;;;;;4.53;3.70;;;7.80;99.90;;;;;;5042007;28;20178;-67
2023/05/03 01:19:28;;;;;;;6.17;4.33;;;8.00;99.90;;;;;;5049770;28;20632;-66
2023/05/03 01:22:35;;;;;;;7.00;4.33;;;8.00;99.90;;;;;;5052423;28;20263;-67
2023/05/03 01:25:09;;;;;;;9.63;4.63;;;7.90;99.90;;;;;;5042842;28;20197;-67
2023/05/03 01:27:39;;;;;;;8.47;4.70;;;7.80;99.90;;;;;;5048620;28;20686;-67
2023/05/03 01:30:09;;;;;;;7.47;4.40;;;7.70;99.90;;;;;;5042277;28;20208;-67
2023/05/03 01:33:04;;;;;;;8.93;4.30;;;7.60;99.90;;;;;;5048815;28;20240;-66
2023/05/03 01:35:41;;;;;;;6.60;3.93;;;7.50;99.90;;;;;;5026894;28;20249;-67
2023/05/03 01:38:08;;;;;;;7.63;4.73;;;7.40;99.90;;;;;;5051619;28;20177;-67
2023/05/03 01:40:44;;;;;;;6.07;4.37;;;7.30;99.90;;;;;;5050586;28;20174;-65
2023/05/03 01:43:12;;;;;;;6.80;3.97;;;7.20;99.90;;;;;;5048900;28;20228;-66
2023/05/03 01:45:38;;;;;;;5.83;4.47;;;7.10;99.90;;;;;;5051424;28;20190;-66
2023/05/03 01:48:09;;;;;;;4.77;3.53;;;7.10;99.90;;;;;;5048885;28;20372;-68
2023/05/03 01:50:35;;;;;;;5.70;4.60;;;7.10;99.90;;;;;;5054334;28;20205;-66
2023/05/03 01:53:01;;;;;;;7.80;4.33;;;7.10;99.90;;;;;;5052421;28;20205;-66
2023/05/03 01:55:26;;;;;;;8.57;4.20;;;7.10;99.90;;;;;;5055916;28;20217;-66
2023/05/03 01:57:52;;;;;;;11.07;4.90;;;7.10;99.90;;;;;;5051616;28;20290;-66
2023/05/03 02:00:18;;;;;;;5.97;3.73;;;7.10;99.90;;;;;;5042603;28;20537;-66
2023/05/03 02:02:43;;;;;;;8.00;4.03;;;7.20;99.90;;;;;;5048251;28;20189;-67
2023/05/03 02:05:10;;;;;;;8.97;5.13;;;7.20;99.90;;;;;;5054918;28;20201;-66
2023/05/03 02:07:35;;;;;;;7.90;4.33;;;7.20;99.90;;;;;;5046768;28;20193;-66
2023/05/03 02:10:01;;;;;;;6.93;4.13;;;7.40;99.90;;;;;;5055182;28;20186;-66
2023/05/03 02:12:27;;;;;;;10.33;4.87;;;7.60;99.90;;;;;;5055096;28;20189;-67
2023/05/03 02:14:52;;;;;;;5.17;4.07;;;7.40;99.90;;;;;;5047500;28;20608;-66
2023/05/03 02:17:19;;;;;;;8.30;4.57;;;7.50;99.90;;;;;;5055040;28;20186;-66
2023/05/03 02:19:45;;;;;;;8.20;5.93;;;7.30;99.90;;;;;;5046916;28;20626;-66
2023/05/03 02:22:11;;;;;;;7.53;4.63;;;7.10;99.90;;;;;;5040294;28;20186;-66
2023/05/03 02:24:36;;;;;;;10.83;4.70;;;7.00;99.90;;;;;;5046980;28;20664;-66
2023/05/03 02:27:05;;;;;;;4.77;4.10;;;7.00;99.90;;;;;;5055247;28;20190;-66
2023/05/03 02:29:32;;;;;;;6.90;4.20;;;6.80;99.90;;;;;;5044830;28;20194;-66
2023/05/03 02:31:58;;;;;;;6.27;4.40;;;6.70;99.90;;;;;;5047110;28;20197;-66
2023/05/03 02:34:25;;;;;;;5.60;3.93;;;6.60;99.90;;;;;;5053536;28;20646;-66
2023/05/03 02:36:50;;;;;;;4.37;3.97;;;6.50;99.90;;;;;;5062231;28;20691;-66
2023/05/03 02:39:16;;;;;;;9.10;5.30;;;6.50;99.90;;;;;;5053803;28;20174;-67
2023/05/03 02:41:42;;;;;;;6.23;4.53;;;6.50;99.90;;;;;;5039584;28;20281;-66
2023/05/03 02:44:07;;;;;;;7.47;5.07;;;6.50;99.90;;;;;;5039029;28;20654;-66
2023/05/03 02:46:33;;;;;;;7.13;4.00;;;6.50;99.90;;;;;;5051127;28;20174;-66
2023/05/03 02:48:59;;;;;;;5.37;4.83;;;6.60;99.90;;;;;;5050490;28;20265;-67
2023/05/03 02:51:25;;;;;;;8.03;4.80;;;6.70;99.90;;;;;;5054737;28;20646;-66
2023/05/03 02:53:51;;;;;;;9.23;4.80;;;6.70;99.90;;;;;;5042881;28;20174;-66
2023/05/03 02:56:17;;;;;;;9.70;5.07;;;6.70;99.90;;;;;;5041037;28;20179;-67
2023/05/03 02:58:42;;;;;;;7.23;4.43;;;6.60;99.90;;;;;;5045266;28;20188;-67
2023/05/03 03:01:09;;;;;;;8.13;4.70;;;6.50;99.90;;;;;;5054393;28;20184;-67
2023/05/03 03:03:35;;;;;;;6.37;4.07;;;6.40;99.90;;;;;;5053310;28;20249;-67
2023/05/03 03:06:00;;;;;;;9.87;4.03;;;6.40;99.90;;;;;;5054317;28;20178;-67
2023/05/03 03:08:26;;;;;;;6.70;5.13;;;6.40;99.90;;;;;;5054106;28;20190;-67
2023/05/03 03:10:52;;;;;;;6.03;4.83;;;6.30;99.90;;;;;;5044435;28;20533;-67
2023/05/03 03:13:17;;;;;;;7.83;4.83;;;6.20;99.90;;;;;;5052722;28;20182;-67
2023/05/03 03:15:43;;;;;;;7.57;4.47;;;6.00;99.90;;;;;;5054412;28;20206;-67
2023/05/03 03:18:09;;;;;;;5.10;4.53;;;5.90;99.90;;;;;;5054576;28;20631;-68
2023/05/03 03:20:34;;;;;;;12.63;5.40;;;5.90;99.90;;;;;;5053430;28;20528;-66
2023/05/03 03:23:00;;;;;;;6.07;4.73;;;6.00;99.90;;;;;;5037940;28;20171;-65
2023/05/03 03:25:26;;;;;;;8.90;4.77;;;6.10;99.90;;;;;;5051629;28;20186;-66
2023/05/03 03:27:51;;;;;;;6.23;4.57;;;6.10;99.90;;;;;;5052426;28;20251;-65
2023/05/03 03:30:17;;;;;;;10.53;4.93;;;6.20;99.90;;;;;;5037978;28;20241;-67
2023/05/03 03:32:42;;;;;;;9.87;4.93;;;6.30;99.90;;;;;;5044344;28;20178;-67
2023/05/03 03:35:09;;;;;;;11.50;5.37;;;6.30;99.90;;;;;;5052353;28;20613;-66
2023/05/03 03:37:35;;;;;;;9.30;5.20;;;6.30;99.90;;;;;;5052708;28;20182;-67
2023/05/03 03:40:00;;;;;;;9.20;5.80;;;6.40;99.90;;;;;;5048868;28;20229;-65
2023/05/03 03:42:26;;;;;;;6.70;4.87;;;6.40;99.90;;;;;;5050737;28;20182;-66
2023/05/03 03:44:52;;;;;;;9.27;4.63;;;6.20;99.90;;;;;;5046041;28;20179;-66
2023/05/03 03:47:17;;;;;;;6.80;5.03;;;6.20;99.90;;;;;;5047566;28;20178;-66
2023/05/03 03:49:43;;;;;;;9.10;5.33;;;6.00;99.90;;;;;;5052755;28;20513;-66
2023/05/03 03:52:09;;;;;;;6.90;4.43;;;6.00;99.90;;;;;;5052360;28;20314;-66
2023/05/03 03:54:35;;;;;;;9.63;5.37;;;6.00;99.90;;;;;;5047612;28;20299;-66
2023/05/03 03:57:03;;;;;;;6.50;5.23;;;6.00;99.90;;;;;;5048576;28;20269;-66
2023/05/03 03:59:29;;;;;;;6.53;4.83;;;5.90;99.90;;;;;;5037610;28;20174;-67
2023/05/03 04:01:55;;;;;;;8.87;4.83;;;6.00;99.90;;;;;;5049015;28;20312;-66
2023/05/03 04:04:21;;;;;;;5.33;4.57;;;6.00;99.90;;;;;;5053793;28;20296;-66
2023/05/03 04:06:46;;;;;;;10.53;5.83;;;6.10;99.90;;;;;;5052977;28;20170;-66
2023/05/03 04:09:13;;;;;;;6.27;4.77;;;6.10;99.90;;;;;;5053500;28;20182;-67
2023/05/03 04:11:39;;;;;;;6.73;4.67;;;6.20;99.90;;;;;;5049773;28;20192;-65
2023/05/03 04:14:05;;;;;;;6.90;4.67;;;6.10;99.90;;;;;;5052113;28;20241;-66
2023/05/03 04:16:30;;;;;;;10.17;6.37;;;6.00;99.90;;;;;;5047045;28;20201;-66
2023/05/03 04:18:56;;;;;;;6.13;5.17;;;6.00;99.90;;;;;;5052311;28;20229;-68
2023/05/03 04:21:22;;;;;;;8.50;5.30;;;6.00;99.90;;;;;;5053586;28;20181;-66
2023/05/03 04:23:47;;;;;;;10.73;5.87;;;6.00;99.90;;;;;;5051855;28;20171;-68
2023/05/03 04:26:13;;;;;;;8.10;5.13;;;6.00;99.90;;;;;;5047473;28;20187;-67
2023/05/03 04:28:39;;;;;;;11.47;5.53;;;6.10;99.90;;;;;;5044072;28;20604;-66
2023/05/03 04:31:04;;;;;;;8.17;4.90;;;6.30;99.90;;;;;;5040542;28;20643;-66
2023/05/03 04:33:30;;;;;;;8.77;5.63;;;6.30;99.90;;;;;;5045979;28;20178;-65
2023/05/03 04:35:56;;;;;;;8.03;5.40;;;6.40;99.90;;;;;;5052720;28;20197;-65
2023/05/03 04:38:22;;;;;;;9.10;5.47;;;6.40;99.90;;;;;;5044244;28;20183;-66
2023/05/03 04:40:48;;;;;;;9.00;5.90;;;6.30;99.90;;;;;;5041442;28;20240;-66
2023/05/03 04:43:14;;;;;;;10.33;5.93;;;6.30;99.90;;;;;;5051648;28;20208;-66
2023/05/03 04:45:41;;;;;;;7.93;5.80;;;6.20;99.90;;;;;;5052550;28;20501;-66
2023/05/03 04:48:08;;;;;;;13.80;5.93;;;6.10;99.90;;;;;;5046479;28;20597;-66
2023/05/03 04:50:33;;;;;;;8.87;5.10;;;6.00;99.90;;;;;;5043891;28;20665;-66
2023/05/03 04:52:59;;;;;;;9.00;5.20;;;5.90;99.90;;;;;;5075397;28;20185;-66
2023/05/03 04:55:25;;;;;;;9.00;5.93;;;5.80;99.90;;;;;;5051823;28;20210;-66
2023/05/03 04:57:50;;;;;;;11.33;5.80;;;5.90;99.90;;;;;;5039532;28;20181;-66
2023/05/03 05:00:16;;;;;;;7.53;5.30;;;6.00;99.90;;;;;;5041752;28;20252;-66
2023/05/03 05:02:42;;;;;;;8.53;5.43;;;6.00;99.90;;;;;;5080218;28;20320;-66
2023/05/03 05:05:09;;;;;;;9.50;5.93;;;6.20;99.90;;;;;;5047445;28;20217;-67
2023/05/03 05:07:34;;;;;;;9.63;5.60;;;6.20;99.90;;;;;;5052694;28;20170;-66
2023/05/03 05:10:00;;;;;;;6.97;6.30;;;6.20;99.90;;;;;;5051388;28;20188;-66
2023/05/03 05:12:26;;;;;;;8.80;6.47;;;6.10;99.90;;;;;;5051960;28;20264;-65
2023/05/03 05:14:52;;;;;;;8.97;4.80;;;6.10;99.90;;;;;;5048153;28;20233;-65
2023/05/03 05:17:17;;;;;;;8.73;5.80;;;6.10;99.90;;;;;;5042625;28;20213;-65
2023/05/03 05:19:43;;;;;;;13.77;6.60;;;6.00;99.90;;;;;;5045374;28;20225;-66
2023/05/03 05:22:09;;;;;;;9.00;5.33;;;6.00;99.90;;;;;;5048850;28;20178;-66
2023/05/03 05:24:35;;;;;;;7.57;5.37;;;6.10;99.90;;;;;;5050382;28;20251;-66
2023/05/03 05:27:00;;;;;;;8.83;5.43;;;6.10;99.90;;;;;;5078139;28;20244;-66
2023/05/03 05:29:26;;;;;;;8.97;5.30;;;6.20;99.90;;;;;;5045397;28;20273;-66
2023/05/03 05:31:52;;;;;;;7.63;6.30;;;6.30;99.90;;;;;;5042250;28;20182;-67
2023/05/03 05:34:17;;;;;;;9.20;5.73;;;6.30;99.90;;;;;;5049499;28;20217;-66
2023/05/03 05:36:43;;;;;;;7.30;5.10;;;6.60;99.90;;;;;;5045098;28;20273;-65
2023/05/03 05:39:09;;;;;;;7.97;6.03;;;6.60;99.90;;;;;;5049460;28;20177;-66
2023/05/03 05:41:35;;;;;;;13.03;6.27;;;6.60;99.90;;;;;;5047902;28;20171;-69
2023/05/03 05:44:00;;;;;;;13.77;6.80;;;6.60;99.90;;;;;;5050876;28;20235;-61
2023/05/03 05:46:26;;;;;;;9.20;6.23;;;6.60;99.90;;;;;;5046728;28;20182;-65
2023/05/03 05:48:52;;;;;;;10.60;6.17;;;6.90;99.90;;;;;;5042782;28;20543;-66
2023/05/03 05:51:17;;;;;;;9.13;6.07;;;7.00;99.90;;;;;;5051138;28;20186;-64
2023/05/03 05:53:43;;;;;;;7.93;5.67;;;7.00;99.90;;;;;;5050088;28;20197;-67
2023/05/03 05:56:10;;;;;;;8.40;6.03;;;7.00;99.90;;;;;;5051626;28;20181;-64
2023/05/03 05:58:39;;;;;;;14.83;5.87;;;7.10;99.90;;;;;;5050269;28;20303;-65
2023/05/03 06:01:05;;;;;;;5.53;4.97;;;7.20;99.90;;;;;;5051885;28;20186;-63
2023/05/03 06:03:33;;;;;;;6.17;5.13;;;7.50;99.90;;;;;;5051955;28;20608;-65
2023/05/03 06:05:58;;;;;;;9.13;5.87;;;7.70;99.90;;;;;;5052351;28;20182;-66
2023/05/03 06:08:24;;;;;;;7.77;5.67;;;7.60;99.90;;;;;;5046018;28;20188;-68
2023/05/03 06:10:51;;;;;;;11.87;6.60;;;7.40;99.90;;;;;;5045678;28;20187;-68
2023/05/03 06:13:17;;;;;;;7.17;5.67;;;7.60;99.90;;;;;;5049782;28;20496;-65
2023/05/03 06:15:43;;;;;;;11.17;6.70;;;7.80;99.90;;;;;;5050449;28;20206;-65
2023/05/03 06:18:09;;;;;;;9.07;6.57;;;7.90;99.90;;;;;;5048823;28;20548;-66
2023/05/03 06:20:35;;;;;;;10.93;7.17;;;7.90;99.90;;;;;;5050564;28;20182;-65
2023/05/03 06:23:00;;;;;;;11.43;6.80;;;7.70;99.90;;;;;;5045079;28;20171;-64
2023/05/03 06:25:26;;;;;;;11.90;7.50;;;7.70;99.90;;;;;;5048496;28;20197;-64
2023/05/03 06:27:52;;;;;;;10.17;6.90;;;7.90;99.90;;;;;;5050101;28;20170;-64
2023/05/03 06:30:22;;;;;;;11.27;6.93;;;8.00;99.90;;;;;;5045868;28;20605;-64
2023/05/03 06:32:48;;;;;;;10.10;7.50;;;8.20;99.90;;;;;;5050631;28;20174;-65
2023/05/03 06:35:14;;;;;;;9.63;7.43;;;8.20;99.90;;;;;;5050085;28;20283;-66
2023/05/03 06:37:42;;;;;;;12.93;8.00;;;8.40;99.90;;;;;;5051609;28;20170;-64
2023/05/03 06:40:08;;;;;;;12.67;7.83;;;8.40;99.90;;;;;;5055188;28;20178;-64
2023/05/03 06:42:34;;;;;;;9.90;7.23;;;8.30;99.90;;;;;;5055027;28;20182;-65
2023/05/03 06:44:59;;;;;;;12.20;7.37;;;8.40;99.90;;;;;;5054995;28;20174;-66
2023/05/03 06:47:25;;;;;;;13.37;7.17;;;8.60;99.90;;;;;;5054469;28;20182;-65
2023/05/03 06:49:51;;;;;;;10.23;7.37;;;8.40;99.90;;;;;;5051597;28;20662;-63
2023/05/03 06:52:16;;;;;;;13.63;8.30;;;8.60;99.90;;;;;;5036329;28;20533;-64
2023/05/03 06:54:43;;;;;;;10.50;7.73;;;8.80;99.90;;;;;;5051937;28;20225;-67
2023/05/03 06:57:09;;;;;;;10.03;8.20;;;9.00;99.90;;;;;;5046209;28;20170;-64
2023/05/03 06:59:35;;;;;;;11.87;7.47;;;9.20;99.90;;;;;;5047214;28;20475;-65
2023/05/03 07:02:00;;;;;;;12.90;6.90;;;9.00;99.90;;;;;;5054532;28;20182;-63
2023/05/03 07:04:27;;;;;;;10.30;8.17;;;8.70;99.90;;;;;;5054571;28;20530;-63
2023/05/03 07:06:52;;;;;;;11.97;7.27;;;8.80;99.90;;;;;;5051756;28;20174;-64
2023/05/03 07:09:18;;;;;;;10.17;7.63;;;9.00;99.90;;;;;;5053523;28;20182;-64
2023/05/03 07:11:48;;;;;;;11.67;8.23;;;9.10;99.90;;;;;;5050233;28;20264;-64
2023/05/03 07:14:15;;;;;;;13.80;7.77;;;9.10;99.90;;;;;;5045925;28;20565;-64
2023/05/03 07:16:41;;;;;;;11.70;8.43;;;9.20;99.90;;;;;;5080026;28;20588;-64
2023/05/03 07:19:07;;;;;;;12.37;8.27;;;9.10;99.90;;;;;;5040171;28;20325;-62
2023/05/03 07:21:33;;;;;;;11.97;9.00;;;9.30;99.90;;;;;;5050034;28;20240;-62
2023/05/03 07:23:59;;;;;;;15.40;8.33;;;9.30;99.90;;;;;;5048502;28;20181;-63
2023/05/03 07:26:25;;;;;;;10.43;7.90;;;9.40;99.90;;;;;;5054731;28;20232;-64
2023/05/03 07:28:52;;;;;;;14.03;8.67;;;9.60;99.90;;;;;;5051467;28;20983;-62
2023/05/03 07:31:18;;;;;;;17.27;8.87;;;10.00;99.90;;;;;;5049196;28;20193;-64
2023/05/03 07:33:44;;;;;;;11.15;7.97;;;11.10;99.90;;;;;;5050494;28;20182;-65
2023/05/03 07:36:10;;;;;;;10.27;7.40;;;12.20;99.90;;;;;;5048322;28;20178;-64
2023/05/03 07:38:36;;;;;;;14.25;7.97;;;13.10;99.90;;;;;;5045805;28;20639;-64
2023/05/03 07:41:02;;;;;;;12.30;7.70;;;13.60;99.90;;;;;;5053943;28;20213;-64
2023/05/03 07:43:28;;;;;;;13.48;7.90;;;13.70;99.90;;;;;;5052869;28;20204;-64
2023/05/03 07:45:54;;;;;;;14.90;7.85;;;14.20;99.90;;;;;;5050817;28;20239;-65
2023/05/03 07:48:20;;;;;;;11.48;7.50;;;15.80;99.90;;;;;;5051501;28;20713;-64
2023/05/03 07:50:45;;;;;;;13.18;7.32;;;15.70;99.90;;;;;;5048844;28;20174;-65
2023/05/03 07:53:11;;;;;;;11.13;7.97;;;15.90;99.90;;;;;;5053667;28;20252;-63
2023/05/03 07:55:37;;;;;;;8.55;6.13;;;15.90;99.90;;;;;;5053851;28;20206;-64
2023/05/03 07:58:04;;;;;;;11.68;7.50;;;16.90;99.90;;;;;;5052291;28;20523;-64
2023/05/03 08:00:29;;;;;;;13.18;8.27;;;17.50;99.90;;;;;;5047487;28;20189;-63
2023/05/03 08:02:55;;;;;;;10.95;7.75;;;17.40;99.90;;;;;;5052365;28;20178;-64
2023/05/03 08:05:22;;;;;;;13.55;7.95;;;17.50;99.90;;;;;;5055019;28;20257;-64
2023/05/03 08:07:51;;;;;;;10.38;7.82;;;17.80;99.90;;;;;;5044080;28;20170;-64
2023/05/03 08:10:17;;;;;;;12.90;7.43;;;18.30;99.90;;;;;;5050476;28;20182;-64
2023/05/03 08:12:44;;;;;;;20.52;9.02;;;19.10;99.90;;;;;;5046465;28;20258;-64
2023/05/03 08:15:10;;;;;;;10.05;6.70;;;18.90;99.90;;;;;;5057570;28;20545;-64
2023/05/03 08:17:43;;;;;;;14.52;8.35;;;19.10;99.90;;;;;;5051362;28;20185;-65
2023/05/03 08:20:10;;;;;;;11.52;7.45;;;18.80;99.90;;;;;;5050430;28;20225;-66
2023/05/03 08:22:40;;;;;;;8.68;6.82;;;18.10;99.90;;;;;;5052424;28;20162;-65
2023/05/03 08:25:06;;;;;;;12.13;8.02;;;18.80;99.90;;;;;;5060265;28;20185;-66
2023/05/03 08:27:33;;;;;;;11.02;7.63;;;18.90;99.90;;;;;;5054063;28;20189;-63
2023/05/03 08:30:00;;;;;;;16.63;8.75;;;19.20;99.90;;;;;;5053879;28;20269;-63
2023/05/03 08:32:26;;;;;;;14.73;6.68;;;19.20;99.90;;;;;;5053501;28;20181;-63
2023/05/03 08:34:54;;;;;;;14.18;8.10;;;19.10;99.90;;;;;;5056831;28;20202;-65
2023/05/03 08:37:20;;;;;;;11.30;7.07;;;19.70;99.90;;;;;;5049798;28;20185;-66
2023/05/03 08:39:46;;;;;;;13.52;8.63;;;19.30;99.90;;;;;;5057900;28;20181;-66
2023/05/03 08:42:12;;;;;;;13.88;7.35;;;19.00;99.90;;;;;;5049732;28;20267;-66
2023/05/03 08:44:46;;;;;;;11.23;7.53;;;19.10;99.90;;;;;;5052533;28;20189;-66
2023/05/03 08:47:17;;;;;;;13.82;7.63;;;18.90;99.90;;;;;;5054366;28;20174;-66
2023/05/03 08:49:43;;;;;;;15.18;8.07;;;18.90;99.90;;;;;;5058991;28;20618;-67
2023/05/03 08:52:10;;;;;;;12.23;7.93;;;18.20;99.90;;;;;;5047894;28;20535;-66
2023/05/03 08:54:37;;;;;;;14.30;8.05;;;18.30;99.90;;;;;;5052451;28;20202;-66
2023/05/03 08:57:03;;;;;;;13.68;8.88;;;18.70;99.90;;;;;;5055361;28;20196;-66
2023/05/03 08:59:29;;;;;;;13.35;8.40;;;19.70;99.90;;;;;;5056411;28;20261;-66
2023/05/03 09:01:55;;;;;;;9.93;7.28;;;20.70;99.90;;;;;;5052435;28;20177;-66
2023/05/03 09:04:32;;;;;;;14.52;8.02;;;19.50;99.90;;;;;;5056641;28;20177;-65
2023/05/03 09:07:10;;;;;;;8.10;6.97;;;18.40;99.90;;;;;;5051148;28;20201;-65
2023/05/03 09:09:35;;;;;;;10.40;7.20;;;19.30;99.90;;;;;;5050232;28;20180;-64
2023/05/03 09:12:03;;;;;;;11.05;7.13;;;19.00;99.90;;;;;;5044598;28;20190;-65
2023/05/03 09:14:28;;;;;;;13.05;7.10;;;18.00;99.90;;;;;;5049845;28;20197;-65
2023/05/03 09:16:54;;;;;;;15.88;8.07;;;17.10;99.90;;;;;;5047509;28;20267;-64
2023/05/03 09:19:20;;;;;;;12.35;7.45;;;16.40;99.90;;;;;;5042063;28;20710;-66
2023/05/03 09:21:46;;;;;;;13.63;8.00;;;15.80;99.90;;;;;;5048192;28;20185;-66
2023/05/03 09:24:18;;;;;;;15.70;8.68;;;15.30;99.90;;;;;;5053967;28;20558;-65
2023/05/03 09:26:45;;;;;;;14.20;9.35;;;14.40;99.90;;;;;;5048517;28;20182;-65
2023/05/03 09:29:30;;;;;;;12.93;8.73;;;14.50;99.90;;;;;;5052671;28;20269;-66
2023/05/03 09:32:04;;;;;;;10.38;7.00;;;14.80;99.90;;;;;;5050680;28;20178;-64
2023/05/03 09:34:30;;;;;;;13.65;8.32;;;14.90;99.90;;;;;;5053474;28;20205;-64
2023/05/03 09:36:56;;;;;;;15.32;9.75;;;14.80;99.90;;;;;;5055557;28;20178;-65
2023/05/03 09:39:22;;;;;;;16.27;8.68;;;14.60;99.90;;;;;;5051343;28;20178;-68
2023/05/03 09:41:48;;;;;;;17.05;9.48;;;14.90;99.90;;;;;;5053902;28;20189;-66
2023/05/03 09:44:15;;;;;;;13.07;8.38;;;14.90;99.90;;;;;;5054292;28;20190;-68
2023/05/03 09:47:01;;;;;;;12.40;9.35;;;14.40;99.90;;;;;;5060496;28;20539;-67
2023/05/03 09:49:27;;;;;;;13.60;9.15;;;14.10;99.90;;;;;;5047226;28;20281;-66
2023/05/03 09:51:53;;;;;;;11.07;7.50;;;13.80;99.90;;;;;;5051545;28;20702;-65
2023/05/03 09:54:20;;;;;;;14.98;8.95;;;14.10;99.90;;;;;;5048225;28;20256;-65
2023/05/03 09:56:48;;;;;;;11.75;8.15;;;14.10;99.90;;;;;;5055826;28;20192;-63
2023/05/03 09:59:13;;;;;;;19.27;8.75;;;14.40;99.90;;;;;;5053580;28;20178;-64
2023/05/03 10:01:39;;;;;;;13.02;7.57;;;14.50;99.90;;;;;;5051105;28;20182;-71
2023/05/03 10:04:06;;;;;;;14.30;7.90;;;14.80;99.90;;;;;;5052244;28;20561;-65
2023/05/03 10:06:37;;;;;;;12.65;8.27;;;14.80;99.90;;;;;;5060050;28;20236;-66
2023/05/03 10:09:25;;;;;;;14.23;7.57;;;14.90;99.90;;;;;;5048595;28;20273;-67
2023/05/03 10:11:52;;;;;;;11.10;7.57;;;14.80;99.90;;;;;;5043625;28;20189;-66
2023/05/03 10:14:22;;;;;;;14.90;7.30;;;14.60;99.90;;;;;;5054411;28;21071;-67
2023/05/03 10:17:01;;;;;;;10.80;7.78;;;14.90;99.90;;;;;;5054309;28;20654;-66
2023/05/03 10:19:52;;;;;;;8.93;7.25;;;14.80;99.90;;;;;;5054511;28;20300;-66
2023/05/03 10:22:18;;;;;;;15.43;8.10;;;15.00;99.90;;;;;;5052807;28;20202;-67
2023/05/03 10:24:59;;;;;;;13.77;7.50;;;15.00;99.90;;;;;;5051786;28;20275;-66
2023/05/03 10:27:35;;;;;;;10.25;7.30;;;15.30;99.90;;;;;;5051130;28;20193;-65
2023/05/03 10:30:02;;;;;;;14.15;8.15;;;15.50;99.90;;;;;;5054832;28;20188;-64
2023/05/03 10:32:40;;;;;;;13.40;8.43;;;15.50;99.90;;;;;;5043904;28;20170;-65
2023/05/03 10:35:28;;;;;;;11.10;7.28;;;15.30;99.90;;;;;;5059373;28;20208;-65
2023/05/03 10:37:58;;;;;;;12.43;8.48;;;15.20;99.90;;;;;;5056969;28;20190;-64
2023/05/03 10:40:40;;;;;;;12.95;7.75;;;15.30;99.90;;;;;;5051162;28;20196;-64
2023/05/03 10:43:06;;;;;;;12.75;8.65;;;15.50;99.90;;;;;;5054769;28;20752;-66
2023/05/03 10:45:33;;;;;;;12.52;8.90;;;15.50;99.90;;;;;;5055327;28;20264;-65
2023/05/03 10:48:11;;;;;;;13.55;7.93;;;15.40;99.90;;;;;;5046354;28;20527;-64
2023/05/03 10:50:39;;;;;;;15.85;9.20;;;15.70;99.90;;;;;;5054336;28;20658;-65
2023/05/03 10:53:05;;;;;;;11.40;7.45;;;16.00;99.90;;;;;;5053260;28;20189;-64
2023/05/03 10:55:32;;;;;;;11.88;7.78;;;15.80;99.90;;;;;;5054356;28;20213;-65
2023/05/03 10:57:58;;;;;;;12.23;7.85;;;15.80;99.90;;;;;;5054328;28;20178;-65
2023/05/03 11:00:37;;;;;;;10.02;7.40;;;15.50;99.90;;;;;;5054957;28;20281;-65
2023/05/03 11:03:12;;;;;;;12.52;9.02;;;15.20;99.90;;;;;;5053345;28;20228;-65
2023/05/03 11:05:38;;;;;;;14.85;7.40;;;15.50;99.90;;;;;;5048533;28;20539;-65
2023/05/03 11:08:26;;;;;;;13.45;7.72;;;15.80;99.90;;;;;;5051537;28;20598;-66
2023/05/03 11:10:59;;;;;;;16.55;7.90;;;16.00;99.90;;;;;;5053180;28;20184;-66
2023/05/03 11:13:26;;;;;;;14.18;8.63;;;16.00;99.90;;;;;;5051163;28;20543;-64
2023/05/03 11:15:55;;;;;;;16.08;9.18;;;16.00;99.90;;;;;;5053928;28;20287;-65
2023/05/03 11:18:21;;;;;;;10.35;7.97;;;15.90;99.90;;;;;;5046590;28;20228;-65
2023/05/03 11:20:48;;;;;;;15.68;7.63;;;15.80;99.90;;;;;;5053989;28;20182;-64
2023/05/03 11:23:14;;;;;;;19.52;8.80;;;16.10;99.90;;;;;;5047190;28;20185;-65
2023/05/03 11:25:40;;;;;;;15.75;8.50;;;16.30;99.90;;;;;;5053845;28;20243;-65
2023/05/03 11:28:06;;;;;;;14.80;8.93;;;16.20;99.90;;;;;;5053779;28;20190;-68
2023/05/03 11:30:36;;;;;;;12.20;8.05;;;16.00;99.90;;;;;;5053438;28;20263;-65
2023/05/03 11:33:02;;;;;;;12.38;7.78;;;16.30;99.90;;;;;;5048821;28;20182;-66
2023/05/03 11:35:29;;;;;;;12.77;8.82;;;16.10;99.90;;;;;;5049111;28;20194;-66
2023/05/03 11:37:55;;;;;;;12.57;7.75;;;15.70;99.90;;;;;;5053869;28;20182;-65
2023/05/03 11:40:21;;;;;;;13.70;7.72;;;15.40;99.90;;;;;;5047944;28;20595;-66
2023/05/03 11:42:51;;;;;;;13.07;7.47;;;15.60;99.90;;;;;;5052073;28;20649;-66
2023/05/03 11:45:18;;;;;;;14.88;7.88;;;15.70;99.90;;;;;;5053493;28;20190;-64
2023/05/03 11:47:44;;;;;;;14.68;7.80;;;15.90;99.90;;;;;;5054247;28;20197;-65
2023/05/03 11:50:10;;;;;;;14.38;8.90;;;15.70;99.90;;;;;;5053142;28;20273;-65
2023/05/03 11:52:36;;;;;;;18.17;9.85;;;15.60;99.90;;;;;;5053308;28;20182;-68
2023/05/03 11:55:03;;;;;;;15.13;6.63;;;15.50;99.90;;;;;;5053111;28;20217;-66
2023/05/03 11:57:31;;;;;;;17.55;8.55;;;15.70;99.90;;;;;;5052842;28;20181;-66
2023/05/03 12:00:09;;;;;;;12.52;7.00;;;15.90;99.90;;;;;;5054318;28;20178;-66
2023/05/03 12:02:35;;;;;;;11.35;6.65;;;15.80;99.90;;;;;;5050067;28;20637;-65
2023/05/03 12:05:01;;;;;;;14.43;7.32;;;16.00;99.90;;;;;;5045925;28;20190;-66
2023/05/03 12:07:27;;;;;;;11.05;7.43;;;16.30;99.90;;;;;;5051394;28;20284;-66
2023/05/03 12:09:52;;;;;;;13.20;7.50;;;16.30;99.90;;;;;;5053340;28;20183;-65
2023/05/03 12:12:18;;;;;;;14.25;7.85;;;16.10;99.90;;;;;;5049475;28;20197;-65
2023/05/03 12:15:00;;;;;;;13.20;7.80;;;16.30;99.90;;;;;;5053372;28;20300;-65
2023/05/03 12:17:39;;;;;;;14.23;8.30;;;16.30;99.90;;;;;;5052577;28;20257;-65
2023/05/03 12:20:21;;;;;;;10.63;7.28;;;16.30;99.90;;;;;;5035214;28;20230;-65
2023/05/03 12:22:55;;;;;;;12.95;7.75;;;16.50;99.90;;;;;;5043625;28;20648;-66
2023/05/03 12:25:22;;;;;;;13.98;8.50;;;16.60;99.90;;;;;;5053055;28;20269;-65
2023/05/03 12:27:47;;;;;;;13.43;8.27;;;16.30;99.90;;;;;;5048849;28;20186;-65
2023/05/03 12:30:14;;;;;;;14.88;8.68;;;16.30;99.90;;;;;;5046220;28;20236;-66
2023/05/03 12:32:40;;;;;;;12.65;8.25;;;16.00;99.90;;;;;;5040466;28;20182;-65
2023/05/03 12:35:09;;;;;;;11.05;8.10;;;15.90;99.90;;;;;;5040868;28;20360;-64
2023/05/03 12:37:36;;;;;;;15.13;8.35;;;15.80;99.90;;;;;;5050399;28;20185;-64
2023/05/03 12:40:03;;;;;;;14.18;9.07;;;15.90;99.90;;;;;;5048162;28;20198;-65
2023/05/03 12:42:29;;;;;;;16.40;9.18;;;16.00;99.90;;;;;;5046378;28;20551;-65
2023/05/03 12:44:58;;;;;;;12.35;8.35;;;16.00;99.90;;;;;;5052996;28;20186;-65
2023/05/03 12:47:24;;;;;;;14.70;8.82;;;15.90;99.90;;;;;;5046930;28;20189;-65
2023/05/03 12:49:50;;;;;;;13.48;8.52;;;15.80;99.90;;;;;;5051275;28;20170;-66
2023/05/03 12:52:16;;;;;;;12.63;7.50;;;16.00;99.90;;;;;;5052824;28;20182;-65